Time;durP1;ratioP1;P1;durP2;ratioP2;P2;SDS_P1;SDS_P2;PMS_P1;PMS_P2;Temp;Humidity;BMP_temperature;BMP_pressure;BME280_temperature;BME280_humidity;BME280_pressure;Samples;Min_cycle;Max_cycle;Signal;HPM_P1;HPM_P2
2022/12/07 00:02:23;;;;;;;14.50;3.13;;;2.40;99.90;;;;;;4992794;28;20038;-76
2022/12/07 00:04:49;;;;;;;7.80;3.05;;;2.40;99.90;;;;;;4977159;28;20034;-76
2022/12/07 00:07:14;;;;;;;10.55;2.65;;;2.40;99.90;;;;;;4996126;28;20113;-76
2022/12/07 00:09:41;;;;;;;8.13;2.30;;;2.30;99.90;;;;;;4994741;28;20117;-76
2022/12/07 00:12:07;;;;;;;4.47;1.92;;;2.30;99.90;;;;;;4996080;28;20046;-76
2022/12/07 00:14:33;;;;;;;6.85;2.00;;;2.20;99.90;;;;;;4995497;28;20065;-76
2022/12/07 00:16:59;;;;;;;7.72;2.03;;;2.10;99.90;;;;;;5011541;28;20030;-76
2022/12/07 00:19:24;;;;;;;10.75;2.47;;;2.10;99.90;;;;;;5004037;28;20038;-76
2022/12/07 00:21:50;;;;;;;9.65;2.47;;;2.00;99.90;;;;;;4995785;28;20314;-76
2022/12/07 00:24:15;;;;;;;9.05;1.95;;;2.00;99.90;;;;;;5012113;28;20558;-76
2022/12/07 00:26:42;;;;;;;9.77;2.40;;;2.10;99.90;;;;;;5011638;28;20045;-76
2022/12/07 00:29:20;;;;;;;15.43;3.58;;;2.10;99.90;;;;;;4981346;28;20038;-76
2022/12/07 00:31:46;;;;;;;12.85;2.90;;;2.10;99.90;;;;;;4995033;28;20040;-76
2022/12/07 00:34:18;;;;;;;7.13;2.33;;;2.20;99.90;;;;;;4995821;28;20037;-76
2022/12/07 00:36:43;;;;;;;7.65;2.00;;;2.20;99.90;;;;;;5011430;28;20046;-77
2022/12/07 00:39:09;;;;;;;7.95;2.05;;;2.20;99.90;;;;;;4992204;28;20044;-76
2022/12/07 00:41:35;;;;;;;13.15;2.65;;;2.20;99.90;;;;;;4992418;28;20039;-76
2022/12/07 00:44:00;;;;;;;8.52;2.15;;;2.30;99.90;;;;;;4992090;28;20261;-76
2022/12/07 00:46:26;;;;;;;10.27;2.55;;;2.30;99.90;;;;;;4992687;28;20496;-76
2022/12/07 00:48:53;;;;;;;12.95;2.35;;;2.40;99.90;;;;;;4999593;28;20053;-76
2022/12/07 00:51:22;;;;;;;8.65;2.22;;;2.40;99.90;;;;;;4991872;28;20050;-76
2022/12/07 00:53:48;;;;;;;8.13;2.13;;;2.40;99.90;;;;;;4975608;28;20073;-76
2022/12/07 00:56:16;;;;;;;14.77;2.35;;;2.30;99.90;;;;;;4985522;28;20073;-77
2022/12/07 00:58:42;;;;;;;12.00;2.67;;;2.30;99.90;;;;;;4990923;28;20130;-76
2022/12/07 01:01:09;;;;;;;7.28;2.22;;;2.40;99.90;;;;;;4975849;28;20128;-76
2022/12/07 01:03:35;;;;;;;11.23;2.15;;;2.40;99.90;;;;;;4975869;28;20096;-76
2022/12/07 01:06:01;;;;;;;8.43;1.75;;;2.40;99.90;;;;;;4984110;28;20042;-76
2022/12/07 01:08:27;;;;;;;9.80;2.30;;;2.40;99.90;;;;;;4983645;28;20045;-76
2022/12/07 01:11:01;;;;;;;10.50;2.08;;;2.30;99.90;;;;;;4994804;28;20045;-76
2022/12/07 01:13:28;;;;;;;12.02;2.72;;;2.30;99.90;;;;;;4995048;28;20392;-76
2022/12/07 01:16:01;;;;;;;9.43;1.98;;;2.40;99.90;;;;;;5010845;28;20045;-76
2022/12/07 01:18:28;;;;;;;12.77;2.15;;;2.30;99.90;;;;;;4994566;28;20050;-76
2022/12/07 01:21:02;;;;;;;11.75;1.88;;;2.30;99.90;;;;;;5011033;28;20042;-76
2022/12/07 01:23:28;;;;;;;9.93;2.22;;;2.20;99.90;;;;;;5010942;28;20046;-76
2022/12/07 01:25:55;;;;;;;8.98;1.77;;;2.20;99.90;;;;;;5010852;28;20104;-76
2022/12/07 01:28:20;;;;;;;8.40;1.75;;;2.20;99.90;;;;;;5010584;28;20050;-76
2022/12/07 01:30:58;;;;;;;13.52;2.00;;;2.10;99.90;;;;;;4983396;28;20045;-76
2022/12/07 01:33:24;;;;;;;11.90;2.20;;;2.10;99.90;;;;;;4975101;28;20049;-76
2022/12/07 01:35:49;;;;;;;15.40;2.17;;;2.10;99.90;;;;;;4981382;28;20397;-76
2022/12/07 01:38:15;;;;;;;10.82;2.05;;;2.10;99.90;;;;;;4997737;28;20121;-76
2022/12/07 01:40:41;;;;;;;15.55;1.95;;;2.20;99.90;;;;;;4990272;28;20039;-76
2022/12/07 01:43:18;;;;;;;12.50;2.20;;;2.30;99.90;;;;;;4991075;28;20427;-76
2022/12/07 01:45:43;;;;;;;13.00;2.20;;;2.30;99.90;;;;;;4996851;28;20042;-76
2022/12/07 01:48:12;;;;;;;9.43;2.30;;;2.40;99.90;;;;;;4987003;28;20030;-76
2022/12/07 01:50:40;;;;;;;10.20;2.00;;;2.40;99.90;;;;;;5002589;28;20034;-76
2022/12/07 01:53:09;;;;;;;15.60;2.70;;;2.40;99.90;;;;;;5010527;28;20128;-76
2022/12/07 01:55:39;;;;;;;14.48;2.95;;;2.40;99.90;;;;;;5010467;28;20045;-76
2022/12/07 01:58:05;;;;;;;13.70;3.60;;;2.30;99.90;;;;;;4994205;28;20041;-76
2022/12/07 02:00:31;;;;;;;8.52;3.25;;;2.30;99.90;;;;;;4994449;28;20128;-76
2022/12/07 02:03:15;;;;;;;9.65;3.17;;;2.30;99.90;;;;;;4994263;28;20053;-76
2022/12/07 02:05:43;;;;;;;8.93;2.90;;;2.30;99.90;;;;;;5010476;28;20061;-76
2022/12/07 02:08:10;;;;;;;11.95;2.42;;;2.30;99.90;;;;;;5006402;28;20431;-76
2022/12/07 02:10:36;;;;;;;9.20;1.90;;;2.20;99.90;;;;;;4995203;28;20077;-76
2022/12/07 02:13:06;;;;;;;9.10;1.77;;;2.20;99.90;;;;;;5014249;28;20069;-76
2022/12/07 02:15:47;;;;;;;8.60;1.85;;;2.20;99.90;;;;;;4998314;28;20045;-76
2022/12/07 02:18:34;;;;;;;8.05;1.80;;;2.10;99.90;;;;;;4990180;28;20035;-76
2022/12/07 02:21:14;;;;;;;9.20;1.80;;;2.10;99.90;;;;;;5014453;28;20124;-76
2022/12/07 02:24:16;;;;;;;10.32;1.90;;;2.00;99.90;;;;;;4998118;28;20041;-76
2022/12/07 02:27:02;;;;;;;9.18;1.70;;;1.90;99.90;;;;;;5009578;28;20045;-76
2022/12/07 02:29:33;;;;;;;11.65;1.67;;;1.90;99.90;;;;;;4947763;28;20365;-76
2022/12/07 02:32:04;;;;;;;10.60;2.00;;;1.90;99.90;;;;;;5014243;28;20077;-76
2022/12/07 02:34:42;;;;;;;12.13;2.00;;;1.80;99.90;;;;;;5014106;28;20056;-76
2022/12/07 02:37:31;;;;;;;10.73;2.25;;;1.90;99.90;;;;;;5005583;28;20605;-76
2022/12/07 02:40:32;;;;;;;14.25;2.42;;;1.80;99.90;;;;;;4994571;28;20038;-76
2022/12/07 02:43:08;;;;;;;9.27;2.22;;;1.90;99.90;;;;;;4987947;28;20054;-76
2022/12/07 02:45:36;;;;;;;13.18;1.85;;;2.00;99.90;;;;;;4982876;28;20042;-76
2022/12/07 02:48:04;;;;;;;14.35;1.85;;;2.10;99.90;;;;;;5002386;28;20049;-76
2022/12/07 02:50:30;;;;;;;6.85;1.50;;;2.10;99.90;;;;;;4994253;28;20043;-76
2022/12/07 02:52:56;;;;;;;9.70;1.83;;;2.10;99.90;;;;;;4994000;28;20042;-76
2022/12/07 02:55:28;;;;;;;8.30;1.60;;;2.10;99.90;;;;;;4998380;28;20404;-76
2022/12/07 02:58:31;;;;;;;10.27;1.73;;;2.10;99.90;;;;;;4982154;28;20485;-76
2022/12/07 03:01:16;;;;;;;6.88;1.63;;;2.10;99.90;;;;;;4997395;28;20050;-76
2022/12/07 03:03:48;;;;;;;9.40;1.40;;;2.20;99.90;;;;;;5013772;28;20509;-76
2022/12/07 03:06:30;;;;;;;7.78;1.50;;;2.30;99.90;;;;;;4990111;28;20125;-76
2022/12/07 03:09:01;;;;;;;7.78;2.00;;;2.40;99.90;;;;;;5019514;28;20046;-75
2022/12/07 03:11:49;;;;;;;11.75;1.52;;;2.50;99.90;;;;;;4977648;28;20038;-76
2022/12/07 03:14:18;;;;;;;13.45;2.17;;;2.50;99.90;;;;;;4993883;28;20046;-76
2022/12/07 03:16:53;;;;;;;8.00;1.85;;;2.60;99.90;;;;;;4989176;28;20639;-76
2022/12/07 03:19:20;;;;;;;9.38;2.00;;;2.60;99.90;;;;;;5008582;28;20127;-76
2022/12/07 03:21:51;;;;;;;11.05;2.72;;;2.70;99.90;;;;;;5013244;28;20049;-76
2022/12/07 03:24:24;;;;;;;13.63;2.10;;;2.80;99.90;;;;;;4997141;28;20050;-76
2022/12/07 03:27:07;;;;;;;12.63;2.15;;;2.80;99.90;;;;;;4998085;28;20051;-76
2022/12/07 03:29:43;;;;;;;12.25;1.60;;;2.80;99.90;;;;;;5002650;28;20084;-76
2022/12/07 03:32:23;;;;;;;11.02;1.98;;;2.90;99.90;;;;;;5007155;28;20400;-76
2022/12/07 03:35:23;;;;;;;10.63;2.22;;;2.80;99.90;;;;;;4977746;28;20026;-76
2022/12/07 03:38:04;;;;;;;8.30;2.05;;;2.80;99.90;;;;;;4980547;28;20034;-76
2022/12/07 03:40:39;;;;;;;9.32;1.95;;;2.80;99.90;;;;;;4996681;28;20050;-76
2022/12/07 03:43:05;;;;;;;11.27;2.00;;;2.70;99.90;;;;;;4996897;28;20042;-76
2022/12/07 03:45:41;;;;;;;6.22;1.30;;;2.70;99.90;;;;;;5012183;28;20050;-76
2022/12/07 03:48:28;;;;;;;7.80;1.20;;;2.60;99.90;;;;;;4998943;28;20053;-76
2022/12/07 03:51:02;;;;;;;7.43;1.10;;;2.60;99.90;;;;;;4993778;28;20093;-76
2022/12/07 03:54:04;;;;;;;9.30;1.30;;;2.50;99.90;;;;;;4993177;28;20046;-76
2022/12/07 03:56:31;;;;;;;7.65;1.42;;;2.50;99.90;;;;;;4966161;28;20245;-76
2022/12/07 03:58:56;;;;;;;7.20;1.20;;;2.40;99.90;;;;;;5012533;28;20099;-76
2022/12/07 04:01:23;;;;;;;8.27;1.38;;;2.40;99.90;;;;;;4996270;28;20129;-76
2022/12/07 04:03:48;;;;;;;10.25;1.33;;;2.40;99.90;;;;;;5023863;23;20045;-74
2022/12/07 04:06:14;;;;;;;11.07;1.63;;;2.40;99.90;;;;;;5009037;28;20407;-75
2022/12/07 04:08:40;;;;;;;7.93;1.63;;;2.40;99.90;;;;;;5014855;28;20041;-74
2022/12/07 04:11:05;;;;;;;12.95;1.65;;;2.40;99.90;;;;;;5016374;28;20033;-74
2022/12/07 04:14:17;;;;;;;9.10;1.40;;;2.30;99.90;;;;;;5016334;28;20483;-74
2022/12/07 04:16:17;;;;;;;8.38;1.45;;;2.30;99.90;;;;;;5029443;28;20041;-74
2022/12/07 04:18:42;;;;;;;11.65;1.48;;;2.30;99.90;;;;;;4994045;28;20100;-74
2022/12/07 04:21:08;;;;;;;8.18;1.27;;;2.20;99.90;;;;;;4976883;28;20492;-74
2022/12/07 04:23:33;;;;;;;9.90;1.73;;;2.20;99.90;;;;;;4977241;28;20452;-74
2022/12/07 04:25:59;;;;;;;11.73;1.98;;;2.20;99.90;;;;;;4981493;28;20059;-75
2022/12/07 04:28:25;;;;;;;7.70;1.63;;;2.10;99.90;;;;;;4995697;28;20476;-74
2022/12/07 04:30:50;;;;;;;6.80;1.38;;;2.00;99.90;;;;;;4999621;28;20041;-74
2022/12/07 04:33:16;;;;;;;12.25;1.88;;;2.00;99.90;;;;;;5006565;28;20044;-74
2022/12/07 04:35:42;;;;;;;9.50;1.30;;;2.00;99.90;;;;;;5012915;28;20065;-74
2022/12/07 04:38:08;;;;;;;7.88;1.80;;;1.90;99.90;;;;;;5007186;28;20041;-74
2022/12/07 04:40:34;;;;;;;7.30;1.13;;;2.00;99.90;;;;;;5015880;28;20068;-74
2022/12/07 04:43:00;;;;;;;7.15;1.60;;;1.90;99.90;;;;;;5015738;28;20057;-74
2022/12/07 04:45:25;;;;;;;8.07;1.10;;;1.80;99.90;;;;;;5013488;28;20434;-74
2022/12/07 04:47:51;;;;;;;6.07;1.40;;;1.80;99.90;;;;;;5007140;28;20041;-74
2022/12/07 04:50:17;;;;;;;7.15;1.25;;;1.80;99.90;;;;;;5022811;28;20038;-74
2022/12/07 04:52:42;;;;;;;9.98;2.00;;;1.80;99.90;;;;;;4989071;28;20110;-74
2022/12/07 04:55:08;;;;;;;8.95;2.22;;;1.70;99.90;;;;;;5007297;28;20034;-74
2022/12/07 04:57:36;;;;;;;7.85;1.80;;;1.70;99.90;;;;;;5002739;28;20396;-77
2022/12/07 05:00:03;;;;;;;13.10;1.80;;;1.60;99.90;;;;;;5007271;28;20037;-76
2022/12/07 05:02:32;;;;;;;10.35;2.13;;;1.70;99.90;;;;;;4992820;28;20050;-76
2022/12/07 05:05:00;;;;;;;10.63;1.80;;;1.60;99.90;;;;;;4995441;28;20572;-77
2022/12/07 05:07:26;;;;;;;7.32;1.35;;;1.60;99.90;;;;;;4977752;28;20050;-78
2022/12/07 05:09:52;;;;;;;7.63;1.27;;;1.60;99.90;;;;;;4998159;28;20065;-78
2022/12/07 05:12:18;;;;;;;7.30;1.65;;;1.60;99.90;;;;;;4997916;28;20112;-76
2022/12/07 05:14:43;;;;;;;9.52;1.50;;;1.50;99.90;;;;;;5006221;28;20056;-76
2022/12/07 05:17:09;;;;;;;10.43;1.67;;;1.50;99.90;;;;;;5013530;28;20090;-76
2022/12/07 05:19:34;;;;;;;9.93;2.13;;;1.50;99.90;;;;;;5004160;28;20409;-76
2022/12/07 05:22:00;;;;;;;13.93;1.83;;;1.50;99.90;;;;;;5006088;28;20041;-76
2022/12/07 05:24:26;;;;;;;11.75;1.50;;;1.40;99.90;;;;;;5005963;28;20041;-76
2022/12/07 05:26:51;;;;;;;10.18;1.67;;;1.50;99.90;;;;;;5015193;28;20117;-77
2022/12/07 05:29:17;;;;;;;12.05;2.22;;;1.50;99.90;;;;;;5015020;28;20045;-77
2022/12/07 05:31:44;;;;;;;11.07;1.95;;;1.50;99.90;;;;;;5000133;28;20117;-76
2022/12/07 05:34:10;;;;;;;7.85;1.40;;;1.50;99.90;;;;;;5008814;28;20038;-78
2022/12/07 05:36:36;;;;;;;10.20;1.95;;;1.50;99.90;;;;;;4993489;28;20045;-76
2022/12/07 05:39:10;;;;;;;9.85;2.22;;;1.40;99.90;;;;;;4976106;28;20046;-77
2022/12/07 05:44:21;;;;;;;9.57;1.80;;;1.40;99.90;;;;;;5015723;28;20563;-79
2022/12/07 05:46:52;;;;;;;11.25;2.35;;;1.40;99.90;;;;;;4976946;28;20046;-79
2022/12/07 05:49:18;;;;;;;12.20;1.48;;;1.40;99.90;;;;;;4976405;28;20109;-78
2022/12/07 05:51:46;;;;;;;13.30;1.70;;;1.30;99.90;;;;;;4982588;28;20049;-78
2022/12/07 05:54:12;;;;;;;7.65;1.33;;;1.30;99.90;;;;;;5008372;28;20114;-79
2022/12/07 05:56:40;;;;;;;6.38;1.45;;;1.30;99.90;;;;;;5005144;28;20046;-79
2022/12/07 05:59:24;;;;;;;9.57;1.30;;;1.30;99.90;;;;;;5008463;28;20569;-79
2022/12/07 06:01:51;;;;;;;12.35;1.70;;;1.30;99.90;;;;;;4999993;28;20530;-79
2022/12/07 06:04:17;;;;;;;10.13;1.60;;;1.20;99.90;;;;;;4994229;28;20069;-79
2022/12/07 06:06:46;;;;;;;12.02;1.58;;;1.30;99.90;;;;;;5007086;28;20042;-79
2022/12/07 06:09:12;;;;;;;8.75;1.90;;;1.30;99.90;;;;;;5016511;28;20038;-79
2022/12/07 06:14:34;;;;;;;10.50;1.85;;;1.40;99.90;;;;;;5023011;28;20056;-79
2022/12/07 06:17:00;;;;;;;13.05;2.00;;;1.50;99.90;;;;;;5016623;28;20120;-79
2022/12/07 06:19:32;;;;;;;13.65;2.42;;;1.70;99.90;;;;;;5016698;28;20076;-79
2022/12/07 06:21:58;;;;;;;8.48;1.70;;;1.80;99.90;;;;;;5008199;28;20048;-79
2022/12/07 06:24:32;;;;;;;14.20;2.08;;;1.90;99.90;;;;;;5008725;28;20510;-79
2022/12/07 06:26:58;;;;;;;8.32;2.00;;;1.90;99.90;;;;;;5016917;28;20499;-79
2022/12/07 06:29:30;;;;;;;15.30;2.13;;;2.00;99.90;;;;;;5017033;28;20047;-79
2022/12/07 06:31:55;;;;;;;11.38;2.22;;;2.10;99.90;;;;;;4996703;28;21751;-79
2022/12/07 06:34:22;;;;;;;11.55;2.15;;;2.20;99.90;;;;;;4998839;28;20369;-79
2022/12/07 06:36:53;;;;;;;9.93;2.92;;;2.20;99.90;;;;;;5017069;28;20415;-79
2022/12/07 06:39:21;;;;;;;8.75;1.90;;;2.30;99.90;;;;;;5011235;28;20037;-79
2022/12/07 06:41:49;;;;;;;5.85;1.98;;;2.30;99.90;;;;;;5002136;28;20045;-79
2022/12/07 06:44:15;;;;;;;10.05;2.05;;;2.40;99.90;;;;;;5006733;28;20326;-79
2022/12/07 06:46:41;;;;;;;8.15;1.98;;;2.40;99.90;;;;;;5015588;28;20048;-79
2022/12/07 06:49:07;;;;;;;9.02;1.85;;;2.40;99.90;;;;;;5016574;28;20049;-79
2022/12/07 06:51:36;;;;;;;7.80;1.98;;;2.40;99.90;;;;;;5017361;28;20037;-79
2022/12/07 06:54:03;;;;;;;10.18;2.00;;;2.50;99.90;;;;;;4998684;28;20492;-78
2022/12/07 06:56:32;;;;;;;11.02;1.80;;;2.50;99.90;;;;;;5009213;28;20121;-78
2022/12/07 06:58:58;;;;;;;12.57;2.15;;;2.50;99.90;;;;;;5012641;28;20044;-79
2022/12/07 07:01:25;;;;;;;10.40;2.40;;;2.40;99.90;;;;;;5010276;28;20037;-79
2022/12/07 07:03:52;;;;;;;7.15;2.28;;;2.40;99.90;;;;;;5012674;28;20041;-79
2022/12/07 07:06:22;;;;;;;8.55;2.15;;;2.30;99.90;;;;;;5006878;28;20057;-79
2022/12/07 07:08:48;;;;;;;8.82;2.67;;;2.30;99.90;;;;;;5011881;28;20057;-79
2022/12/07 07:11:14;;;;;;;7.85;2.22;;;2.20;99.90;;;;;;5014848;28;20627;-79
2022/12/07 07:13:43;;;;;;;5.18;1.95;;;2.10;99.90;;;;;;5013094;28;20490;-79
2022/12/07 07:16:11;;;;;;;5.47;1.98;;;2.00;99.90;;;;;;5015045;28;20129;-78
2022/12/07 07:18:37;;;;;;;5.97;1.95;;;2.00;99.90;;;;;;5009156;28;20082;-79
2022/12/07 07:21:07;;;;;;;6.93;2.10;;;1.90;99.90;;;;;;5020920;28;20044;-79
2022/12/07 07:23:35;;;;;;;6.00;1.70;;;1.90;99.90;;;;;;5020672;28;20411;-79
2022/12/07 07:26:01;;;;;;;11.40;2.30;;;1.80;99.90;;;;;;5014752;28;20041;-79
2022/12/07 07:28:35;;;;;;;9.25;2.22;;;1.70;99.90;;;;;;5003905;28;20560;-79
2022/12/07 07:31:06;;;;;;;4.30;1.50;;;1.70;99.90;;;;;;5014521;28;20077;-78
2022/12/07 07:33:35;;;;;;;5.07;1.02;;;1.60;99.90;;;;;;5007433;28;20037;-79
2022/12/07 07:36:04;;;;;;;8.00;1.45;;;1.60;99.90;;;;;;5007748;28;20042;-79
2022/12/07 07:38:33;;;;;;;5.65;1.25;;;1.50;99.90;;;;;;5007683;28;20040;-79
2022/12/07 07:41:03;;;;;;;4.35;1.00;;;1.40;99.90;;;;;;5021111;28;20045;-79
2022/12/07 07:43:35;;;;;;;7.85;1.40;;;1.30;99.90;;;;;;5024409;28;20506;-79
2022/12/07 07:46:07;;;;;;;5.53;0.90;;;1.30;99.90;;;;;;5021009;28;20128;-79
2022/12/07 07:48:43;;;;;;;7.85;1.48;;;1.30;99.90;;;;;;5013927;28;20034;-79
2022/12/07 07:51:18;;;;;;;6.10;1.70;;;1.30;99.90;;;;;;5016129;28;20050;-78
2022/12/07 07:53:44;;;;;;;6.50;1.55;;;1.30;99.90;;;;;;5021342;28;20068;-79
2022/12/07 07:56:15;;;;;;;10.00;2.08;;;1.40;99.90;;;;;;5012588;28;20073;-79
2022/12/07 07:58:41;;;;;;;9.25;1.80;;;1.50;99.90;;;;;;5001405;28;20067;-79
2022/12/07 08:01:13;;;;;;;10.77;1.92;;;1.50;99.90;;;;;;5015181;28;20053;-79
2022/12/07 08:03:42;;;;;;;10.43;1.77;;;1.50;99.90;;;;;;5021039;28;20423;-78
2022/12/07 08:06:16;;;;;;;9.57;2.10;;;1.60;99.90;;;;;;5017756;28;20041;-75
2022/12/07 08:08:47;;;;;;;8.45;2.00;;;1.80;99.90;;;;;;5004724;28;20184;-76
2022/12/07 08:11:13;;;;;;;10.18;2.08;;;1.80;99.90;;;;;;5010554;28;20049;-76
2022/12/07 08:13:38;;;;;;;11.48;2.40;;;1.90;99.90;;;;;;5015548;28;20045;-76
2022/12/07 08:16:11;;;;;;;8.10;1.67;;;1.90;99.90;;;;;;5015771;28;20047;-76
2022/12/07 08:18:43;;;;;;;8.27;2.40;;;1.90;99.90;;;;;;4999447;28;20048;-76
2022/12/07 08:21:22;;;;;;;11.00;2.50;;;1.90;99.90;;;;;;5010142;28;20521;-76
2022/12/07 08:23:50;;;;;;;9.57;2.28;;;1.80;99.90;;;;;;5003665;28;20049;-76
2022/12/07 08:26:19;;;;;;;9.30;1.90;;;1.80;99.90;;;;;;5011361;28;20205;-75
2022/12/07 08:28:50;;;;;;;13.30;2.72;;;1.80;99.90;;;;;;5015179;28;20068;-76
2022/12/07 08:31:29;;;;;;;12.52;2.42;;;1.80;99.90;;;;;;5008701;28;20037;-76
2022/12/07 08:34:00;;;;;;;14.02;3.35;;;1.80;99.90;;;;;;4996485;28;20129;-76
2022/12/07 08:36:26;;;;;;;11.98;3.05;;;1.80;99.90;;;;;;5007439;28;20034;-75
2022/12/07 08:38:52;;;;;;;10.05;2.92;;;1.80;99.90;;;;;;5015151;28;20359;-76
2022/12/07 08:41:18;;;;;;;9.15;2.67;;;1.80;99.90;;;;;;5015379;28;20045;-75
2022/12/07 08:43:44;;;;;;;10.05;2.83;;;1.90;99.90;;;;;;5004702;28;20050;-75
2022/12/07 08:46:19;;;;;;;11.23;2.38;;;1.90;99.90;;;;;;5010100;28;20099;-76
2022/12/07 08:49:00;;;;;;;11.30;3.08;;;1.90;99.90;;;;;;5015171;28;20048;-78
2022/12/07 08:51:28;;;;;;;11.70;2.72;;;1.90;99.90;;;;;;5016266;28;20045;-75
2022/12/07 08:53:58;;;;;;;9.50;2.88;;;1.90;99.90;;;;;;5002961;28;20092;-79
2022/12/07 08:56:33;;;;;;;12.70;3.08;;;2.10;99.90;;;;;;5000410;28;20026;-76
2022/12/07 08:59:02;;;;;;;15.90;3.10;;;2.10;99.90;;;;;;4975703;28;20050;-76
2022/12/07 09:01:28;;;;;;;10.68;2.95;;;2.10;99.90;;;;;;4977279;28;20046;-76
2022/12/07 09:03:54;;;;;;;10.50;3.13;;;2.10;99.90;;;;;;5006908;28;20048;-76
2022/12/07 09:06:23;;;;;;;15.85;3.08;;;2.10;99.90;;;;;;5014909;28;20041;-76
2022/12/07 09:08:54;;;;;;;9.63;3.05;;;2.10;99.90;;;;;;5004538;28;20045;-76
2022/12/07 09:11:19;;;;;;;9.15;2.45;;;2.20;99.90;;;;;;5006944;28;20095;-76
2022/12/07 09:13:47;;;;;;;11.15;3.40;;;2.30;99.90;;;;;;5014663;28;20440;-76
2022/12/07 09:16:13;;;;;;;11.95;2.83;;;2.30;99.90;;;;;;5014989;28;20431;-76
2022/12/07 09:18:39;;;;;;;12.23;3.03;;;2.40;99.90;;;;;;4997248;28;20051;-76
2022/12/07 09:21:08;;;;;;;10.55;3.10;;;2.40;99.90;;;;;;5001575;28;20048;-76
2022/12/07 09:23:34;;;;;;;10.23;3.00;;;2.50;99.90;;;;;;5006370;28;20446;-76
2022/12/07 09:26:10;;;;;;;13.07;3.67;;;2.60;99.90;;;;;;5014428;28;20479;-76
2022/12/07 09:28:35;;;;;;;10.00;2.58;;;2.60;99.90;;;;;;4999450;28;20492;-76
2022/12/07 09:31:02;;;;;;;9.43;2.60;;;2.70;99.90;;;;;;5006383;28;20043;-75
2022/12/07 09:33:32;;;;;;;13.52;2.92;;;2.80;99.90;;;;;;5030679;28;20033;-76
2022/12/07 09:36:00;;;;;;;11.68;2.58;;;2.80;99.90;;;;;;5014566;28;20420;-75
2022/12/07 09:38:29;;;;;;;8.95;2.50;;;2.90;99.90;;;;;;5005517;28;20084;-77
2022/12/07 09:40:55;;;;;;;10.18;2.25;;;3.00;99.90;;;;;;5006279;28;20076;-76
2022/12/07 09:43:25;;;;;;;9.85;2.78;;;3.10;99.90;;;;;;5014098;28;20495;-76
2022/12/07 09:45:55;;;;;;;6.40;2.15;;;3.30;99.90;;;;;;5014515;28;20042;-76
2022/12/07 09:48:29;;;;;;;8.90;2.30;;;3.50;99.90;;;;;;5000178;28;20058;-76
2022/12/07 09:50:58;;;;;;;9.10;2.72;;;3.70;99.90;;;;;;4995508;28;20456;-77
2022/12/07 09:53:31;;;;;;;9.07;2.22;;;3.80;99.90;;;;;;4994671;28;20435;-76
2022/12/07 09:55:57;;;;;;;11.32;2.30;;;3.80;99.90;;;;;;4994354;28;20507;-76
2022/12/07 09:58:28;;;;;;;8.48;1.80;;;3.90;99.90;;;;;;4987711;28;20031;-77
2022/12/07 10:00:59;;;;;;;8.50;1.95;;;4.00;99.90;;;;;;4986419;28;20053;-76
2022/12/07 10:03:28;;;;;;;7.40;1.40;;;4.10;99.90;;;;;;5007596;28;20045;-76
2022/12/07 10:05:54;;;;;;;12.43;1.98;;;4.10;99.90;;;;;;5008285;28;20498;-76
2022/12/07 10:08:24;;;;;;;6.55;1.88;;;4.10;99.90;;;;;;5001217;28;20061;-76
2022/12/07 10:10:55;;;;;;;6.68;1.38;;;4.20;99.90;;;;;;4991435;28;20038;-76
2022/12/07 10:13:35;;;;;;;6.53;1.35;;;4.40;99.90;;;;;;5006195;28;20037;-76
2022/12/07 10:16:01;;;;;;;7.35;1.67;;;4.40;99.90;;;;;;5013788;28;20048;-76
2022/12/07 10:18:37;;;;;;;6.55;1.40;;;4.40;99.90;;;;;;4999664;28;20031;-76
2022/12/07 10:21:13;;;;;;;5.95;1.20;;;4.40;99.90;;;;;;5013771;28;20034;-76
2022/12/07 10:24:01;;;;;;;13.07;2.08;;;4.50;99.90;;;;;;5014046;28;20098;-75
2022/12/07 10:26:35;;;;;;;7.25;1.83;;;4.50;99.90;;;;;;4996496;28;20042;-76
2022/12/07 10:29:28;;;;;;;6.97;1.80;;;4.60;99.90;;;;;;5013985;28;20045;-76
2022/12/07 10:32:16;;;;;;;8.77;1.55;;;4.60;99.90;;;;;;5017816;28;20468;-76
2022/12/07 10:34:42;;;;;;;8.18;1.75;;;4.60;99.90;;;;;;5010135;28;20050;-76
2022/12/07 10:37:16;;;;;;;10.27;2.40;;;4.50;99.90;;;;;;5009697;28;20146;-76
2022/12/07 10:39:51;;;;;;;9.50;2.88;;;4.50;99.90;;;;;;5017587;28;20057;-76
2022/12/07 10:42:31;;;;;;;6.53;1.30;;;4.70;99.90;;;;;;5017220;28;20045;-75
2022/12/07 10:45:20;;;;;;;6.78;1.55;;;4.90;99.90;;;;;;5013975;28;20072;-76
2022/12/07 10:48:11;;;;;;;7.43;1.20;;;5.00;99.90;;;;;;5009277;28;20049;-77
2022/12/07 10:50:47;;;;;;;9.48;1.60;;;5.20;99.90;;;;;;5017036;28;20042;-76
2022/12/07 10:53:34;;;;;;;5.47;1.08;;;5.30;99.90;;;;;;5016790;28;20037;-75
2022/12/07 10:56:54;;;;;;;7.15;1.88;;;5.40;99.90;;;;;;5004184;28;20041;-76
2022/12/07 10:59:42;;;;;;;5.95;1.40;;;5.50;99.90;;;;;;4922553;29;20106;-76
2022/12/07 11:02:20;;;;;;;6.82;1.23;;;5.40;99.90;;;;;;4974198;28;20046;-75
2022/12/07 11:04:58;;;;;;;6.00;1.58;;;5.40;99.90;;;;;;5007362;28;20045;-76
2022/12/07 11:08:00;;;;;;;4.85;1.05;;;5.30;99.90;;;;;;5008548;28;20041;-76
2022/12/07 11:11:06;;;;;;;5.15;1.00;;;5.20;99.90;;;;;;5016624;28;20511;-76
2022/12/07 11:14:06;;;;;;;3.75;0.80;;;5.20;99.90;;;;;;4984438;28;20041;-76
2022/12/07 11:16:54;;;;;;;7.13;1.10;;;5.10;99.90;;;;;;5010361;28;20041;-75
2022/12/07 11:19:37;;;;;;;4.97;1.17;;;5.00;99.90;;;;;;5012431;28;20128;-75
2022/12/07 11:22:17;;;;;;;4.22;0.95;;;5.00;99.90;;;;;;5016833;28;20403;-76
2022/12/07 11:24:55;;;;;;;4.70;1.10;;;5.10;99.90;;;;;;5013894;28;20038;-76
2022/12/07 11:27:37;;;;;;;9.05;2.45;;;5.20;99.90;;;;;;5008243;28;20546;-75
2022/12/07 11:30:09;;;;;;;7.82;2.55;;;5.30;99.90;;;;;;5016458;28;20051;-76
2022/12/07 11:32:44;;;;;;;6.18;1.83;;;5.50;99.90;;;;;;5039730;28;20088;-76
2022/12/07 11:35:31;;;;;;;5.78;1.27;;;5.70;99.90;;;;;;5010917;28;20483;-76
2022/12/07 11:38:08;;;;;;;6.47;1.20;;;5.70;99.90;;;;;;5016351;28;20442;-76
2022/12/07 11:40:39;;;;;;;6.03;1.48;;;5.80;99.90;;;;;;5015878;28;20049;-76
2022/12/07 11:43:21;;;;;;;8.50;1.55;;;5.90;99.90;;;;;;5003747;28;20120;-76
2022/12/07 11:46:05;;;;;;;9.02;1.85;;;5.90;99.90;;;;;;5015736;28;20037;-76
2022/12/07 11:48:38;;;;;;;5.35;1.00;;;6.00;99.90;;;;;;5015834;28;20500;-76
2022/12/07 11:51:08;;;;;;;6.22;1.95;;;6.00;99.90;;;;;;5015990;28;20212;-76
2022/12/07 11:54:21;;;;;;;5.75;1.40;;;6.10;99.90;;;;;;5005595;28;20086;-76
2022/12/07 11:56:54;;;;;;;6.22;1.38;;;6.00;99.90;;;;;;4993593;28;20067;-76
2022/12/07 11:59:30;;;;;;;7.97;1.48;;;6.00;99.90;;;;;;5007750;28;20057;-76
2022/12/07 12:02:15;;;;;;;5.82;1.20;;;5.90;99.90;;;;;;5015923;28;20073;-77
2022/12/07 12:04:50;;;;;;;7.65;1.52;;;5.90;99.90;;;;;;5015607;28;20579;-76
2022/12/07 12:07:23;;;;;;;6.68;1.60;;;5.90;99.90;;;;;;5003451;28;20042;-76
2022/12/07 12:10:25;;;;;;;9.27;1.77;;;5.90;99.90;;;;;;4999484;28;20117;-76
2022/12/07 12:13:07;;;;;;;8.98;1.73;;;5.90;99.90;;;;;;5015675;28;20056;-76
2022/12/07 12:15:50;;;;;;;7.90;1.60;;;5.90;99.90;;;;;;5016108;28;20033;-76
2022/12/07 12:18:49;;;;;;;6.80;2.00;;;6.00;99.90;;;;;;4993859;28;20054;-76
2022/12/07 12:21:18;;;;;;;8.13;1.40;;;6.20;99.90;;;;;;5023134;28;20107;-76
2022/12/07 12:23:46;;;;;;;8.15;1.27;;;6.30;99.90;;;;;;5015613;28;20456;-76
2022/12/07 12:26:35;;;;;;;9.13;1.90;;;6.60;99.90;;;;;;5015438;28;20491;-76
2022/12/07 12:29:04;;;;;;;6.88;1.55;;;6.80;99.90;;;;;;5015087;28;20100;-76
2022/12/07 12:31:44;;;;;;;6.30;1.10;;;6.80;99.90;;;;;;5008682;28;20041;-76
2022/12/07 12:34:33;;;;;;;7.65;1.40;;;7.00;99.90;;;;;;5006976;28;20485;-76
2022/12/07 12:37:01;;;;;;;6.38;1.20;;;7.00;99.90;;;;;;5015421;28;20038;-76
2022/12/07 12:39:27;;;;;;;5.35;1.40;;;7.00;99.90;;;;;;5015115;28;20043;-78
2022/12/07 12:44:22;;;;;;;5.68;1.20;;;7.00;99.90;;;;;;5019706;28;20412;-76
2022/12/07 12:46:58;;;;;;;8.23;1.10;;;7.00;99.90;;;;;;4995449;28;20085;-77
2022/12/07 12:49:24;;;;;;;5.68;1.60;;;6.90;99.90;;;;;;4995225;28;20603;-77
2022/12/07 12:52:13;;;;;;;5.20;1.30;;;6.80;99.90;;;;;;4994900;28;20044;-75
2022/12/07 12:55:20;;;;;;;5.70;1.23;;;6.70;99.90;;;;;;4995396;28;20038;-76
2022/12/07 12:57:46;;;;;;;8.10;1.45;;;6.70;99.90;;;;;;5002011;28;20029;-75
2022/12/07 13:00:21;;;;;;;10.18;1.80;;;6.50;99.90;;;;;;5009675;28;20096;-76
2022/12/07 13:02:56;;;;;;;5.05;1.15;;;6.50;99.90;;;;;;5014250;28;20073;-75
2022/12/07 13:05:27;;;;;;;6.97;1.17;;;6.40;99.90;;;;;;5010160;28;20041;-76
2022/12/07 13:08:15;;;;;;;7.03;1.42;;;6.30;99.90;;;;;;5011564;28;20033;-76
2022/12/07 13:10:43;;;;;;;6.97;1.20;;;6.30;99.90;;;;;;5002130;28;20103;-76
2022/12/07 13:13:13;;;;;;;9.40;2.05;;;6.20;99.90;;;;;;5009325;28;20041;-77
2022/12/07 13:15:44;;;;;;;6.70;1.13;;;6.30;99.90;;;;;;5014521;28;20072;-78
2022/12/07 13:18:36;;;;;;;5.30;1.00;;;6.20;99.90;;;;;;5014581;28;20037;-78
2022/12/07 13:21:08;;;;;;;7.13;1.48;;;6.10;99.90;;;;;;5014488;28;20076;-78
2022/12/07 13:23:39;;;;;;;4.57;1.15;;;6.10;99.90;;;;;;5004414;28;20042;-77
2022/12/07 13:26:16;;;;;;;5.80;1.00;;;6.00;99.90;;;;;;5014759;28;20497;-77
2022/12/07 13:29:11;;;;;;;3.55;0.73;;;6.00;99.90;;;;;;5014040;28;20048;-77